sensor_id;sensor_type;location;lat;lon;timestamp;pressure;altitude;pressure_sealevel;temperature;humidity
52361;BME280;38294;42.966;1.608;2023-02-01T04:02:59;98455.72;;;6.62;66.42
52361;BME280;38294;42.966;1.608;2023-02-01T04:05:25;98446.44;;;6.49;66.88
52361;BME280;38294;42.966;1.608;2023-02-01T04:07:50;98455.03;;;6.43;67.89
52361;BME280;38294;42.966;1.608;2023-02-01T04:10:16;98451.19;;;6.30;67.95
52361;BME280;38294;42.966;1.608;2023-02-01T04:12:42;98451.06;;;6.21;68.06
52361;BME280;38294;42.966;1.608;2023-02-01T04:15:07;98453.50;;;6.64;65.95
52361;BME280;38294;42.966;1.608;2023-02-01T04:17:33;98453.75;;;6.90;65.39
52361;BME280;38294;42.966;1.608;2023-02-01T04:19:59;98445.78;;;6.93;64.23
52361;BME280;38294;42.966;1.608;2023-02-01T04:22:24;98455.16;;;7.01;63.66
52361;BME280;38294;42.966;1.608;2023-02-01T04:24:50;98448.16;;;7.08;63.63
52361;BME280;38294;42.966;1.608;2023-02-01T04:27:16;98462.00;;;6.98;64.39
52361;BME280;38294;42.966;1.608;2023-02-01T04:29:41;98459.94;;;7.17;63.92
52361;BME280;38294;42.966;1.608;2023-02-01T04:32:07;98462.72;;;7.39;63.87
52361;BME280;38294;42.966;1.608;2023-02-01T04:34:33;98449.94;;;7.26;63.46
52361;BME280;38294;42.966;1.608;2023-02-01T04:36:58;98460.22;;;7.29;61.85
52361;BME280;38294;42.966;1.608;2023-02-01T04:39:24;98459.94;;;7.17;62.07
52361;BME280;38294;42.966;1.608;2023-02-01T04:41:49;98458.78;;;7.46;61.09
52361;BME280;38294;42.966;1.608;2023-02-01T04:44:17;98462.84;;;7.57;61.36
52361;BME280;38294;42.966;1.608;2023-02-01T04:46:43;98461.59;;;8.07;60.10
52361;BME280;38294;42.966;1.608;2023-02-01T04:49:10;98464.91;;;8.26;59.58
52361;BME280;38294;42.966;1.608;2023-02-01T04:51:35;98469.28;;;8.05;59.39
52361;BME280;38294;42.966;1.608;2023-02-01T04:54:01;98488.03;;;7.40;61.16
52361;BME280;38294;42.966;1.608;2023-02-01T04:56:27;98481.44;;;7.77;61.39
52361;BME280;38294;42.966;1.608;2023-02-01T04:58:52;98480.72;;;7.85;61.85
52361;BME280;38294;42.966;1.608;2023-02-01T05:01:18;98479.22;;;8.01;61.24
52361;BME280;38294;42.966;1.608;2023-02-01T05:03:44;98481.50;;;8.08;60.38
52361;BME280;38294;42.966;1.608;2023-02-01T05:06:09;98476.78;;;8.00;60.38
52361;BME280;38294;42.966;1.608;2023-02-01T05:08:35;98481.31;;;7.82;61.04
52361;BME280;38294;42.966;1.608;2023-02-01T05:11:01;98490.81;;;7.84;62.48
52361;BME280;38294;42.966;1.608;2023-02-01T05:13:30;98498.53;;;8.13;61.57
52361;BME280;38294;42.966;1.608;2023-02-01T05:16:15;98483.91;;;8.31;61.37
52361;BME280;38294;42.966;1.608;2023-02-01T05:18:40;98482.53;;;8.42;60.90
52361;BME280;38294;42.966;1.608;2023-02-01T05:21:06;98484.13;;;8.21;60.42
52361;BME280;38294;42.966;1.608;2023-02-01T05:23:31;98491.66;;;7.49;62.63
52361;BME280;38294;42.966;1.608;2023-02-01T05:26:01;98494.88;;;7.96;63.27
52361;BME280;38294;42.966;1.608;2023-02-01T05:28:27;98494.00;;;8.09;62.26
52361;BME280;38294;42.966;1.608;2023-02-01T05:30:53;98497.16;;;8.24;61.47
52361;BME280;38294;42.966;1.608;2023-02-01T05:33:20;98502.38;;;8.12;61.75
52361;BME280;38294;42.966;1.608;2023-02-01T05:35:45;98509.53;;;8.00;61.90
52361;BME280;38294;42.966;1.608;2023-02-01T05:38:11;98499.22;;;8.19;61.61
52361;BME280;38294;42.966;1.608;2023-02-01T05:40:36;98501.84;;;7.79;62.02
52361;BME280;38294;42.966;1.608;2023-02-01T05:43:02;98509.94;;;8.15;61.18
52361;BME280;38294;42.966;1.608;2023-02-01T05:45:27;98503.19;;;8.35;60.35
52361;BME280;38294;42.966;1.608;2023-02-01T05:47:53;98513.19;;;8.39;60.44
52361;BME280;38294;42.966;1.608;2023-02-01T05:50:18;98507.50;;;7.47;62.79
52361;BME280;38294;42.966;1.608;2023-02-01T05:52:44;98518.47;;;7.91;62.73
52361;BME280;38294;42.966;1.608;2023-02-01T05:55:10;98515.53;;;8.10;61.76
52361;BME280;38294;42.966;1.608;2023-02-01T05:57:35;98514.56;;;8.06;61.78
52361;BME280;38294;42.966;1.608;2023-02-01T06:00:01;98508.66;;;8.35;61.13
52361;BME280;38294;42.966;1.608;2023-02-01T06:02:27;98512.03;;;8.40;60.48
52361;BME280;38294;42.966;1.608;2023-02-01T06:04:53;98517.69;;;8.44;60.19
52361;BME280;38294;42.966;1.608;2023-02-01T06:07:18;98519.63;;;8.21;60.67
52361;BME280;38294;42.966;1.608;2023-02-01T06:09:45;98516.72;;;8.40;60.45
52361;BME280;38294;42.966;1.608;2023-02-01T06:12:10;98519.59;;;8.74;59.36
52361;BME280;38294;42.966;1.608;2023-02-01T06:14:36;98515.50;;;8.55;59.30
52361;BME280;38294;42.966;1.608;2023-02-01T06:17:02;98505.50;;;8.50;59.30
52361;BME280;38294;42.966;1.608;2023-02-01T06:19:28;98511.41;;;8.43;59.39
52361;BME280;38294;42.966;1.608;2023-02-01T06:21:53;98521.00;;;7.88;60.07
52361;BME280;38294;42.966;1.608;2023-02-01T06:24:19;98530.53;;;8.21;59.88
52361;BME280;38294;42.966;1.608;2023-02-01T06:26:45;98532.03;;;8.50;60.12
52361;BME280;38294;42.966;1.608;2023-02-01T06:29:10;98531.97;;;8.19;61.46
52361;BME280;38294;42.966;1.608;2023-02-01T06:31:36;98529.25;;;7.97;62.05
52361;BME280;38294;42.966;1.608;2023-02-01T06:34:02;98521.22;;;8.44;60.95
52361;BME280;38294;42.966;1.608;2023-02-01T06:36:28;98539.50;;;8.35;59.65
52361;BME280;38294;42.966;1.608;2023-02-01T06:38:55;98530.06;;;7.97;59.70
52361;BME280;38294;42.966;1.608;2023-02-01T06:41:22;98527.44;;;7.92;59.22
52361;BME280;38294;42.966;1.608;2023-02-01T06:43:47;98528.44;;;7.96;58.70
52361;BME280;38294;42.966;1.608;2023-02-01T06:46:13;98528.38;;;8.10;58.70
52361;BME280;38294;42.966;1.608;2023-02-01T06:48:39;98528.94;;;8.42;58.31
52361;BME280;38294;42.966;1.608;2023-02-01T06:51:05;98527.97;;;8.78;58.22
52361;BME280;38294;42.966;1.608;2023-02-01T06:53:31;98518.31;;;8.72;58.16
52361;BME280;38294;42.966;1.608;2023-02-01T06:55:59;98526.16;;;8.73;57.63
52361;BME280;38294;42.966;1.608;2023-02-01T06:58:28;98528.69;;;9.01;57.07
52361;BME280;38294;42.966;1.608;2023-02-01T07:00:54;98540.34;;;8.44;59.21
52361;BME280;38294;42.966;1.608;2023-02-01T07:03:20;98526.06;;;8.48;59.19
52361;BME280;38294;42.966;1.608;2023-02-01T07:05:46;98533.91;;;7.96;61.54
52361;BME280;38294;42.966;1.608;2023-02-01T07:08:11;98540.41;;;7.86;61.79
52361;BME280;38294;42.966;1.608;2023-02-01T07:10:37;98545.66;;;7.83;62.55
52361;BME280;38294;42.966;1.608;2023-02-01T07:13:03;98546.53;;;7.70;62.73
52361;BME280;38294;42.966;1.608;2023-02-01T07:15:29;98554.63;;;7.97;61.95
52361;BME280;38294;42.966;1.608;2023-02-01T07:17:55;98550.84;;;8.60;60.39
52361;BME280;38294;42.966;1.608;2023-02-01T07:20:21;98548.41;;;8.89;59.59
52361;BME280;38294;42.966;1.608;2023-02-01T07:22:46;98555.13;;;8.83;59.29
52361;BME280;38294;42.966;1.608;2023-02-01T07:25:12;98559.88;;;9.00;58.75
52361;BME280;38294;42.966;1.608;2023-02-01T07:27:37;98567.88;;;8.57;58.44
52361;BME280;38294;42.966;1.608;2023-02-01T07:30:04;98555.47;;;9.29;57.98
52361;BME280;38294;42.966;1.608;2023-02-01T07:32:30;98553.66;;;9.16;57.24
52361;BME280;38294;42.966;1.608;2023-02-01T07:34:57;98548.94;;;9.08;57.22
52361;BME280;38294;42.966;1.608;2023-02-01T07:37:23;98546.31;;;8.86;58.27
52361;BME280;38294;42.966;1.608;2023-02-01T07:39:51;98539.06;;;8.81;58.74
52361;BME280;38294;42.966;1.608;2023-02-01T07:42:17;98537.06;;;8.65;59.72
52361;BME280;38294;42.966;1.608;2023-02-01T07:44:43;98535.25;;;8.52;60.20
52361;BME280;38294;42.966;1.608;2023-02-01T07:47:08;98535.75;;;8.31;60.33
52361;BME280;38294;42.966;1.608;2023-02-01T07:49:34;98533.31;;;7.63;61.79
52361;BME280;38294;42.966;1.608;2023-02-01T07:51:59;98527.19;;;7.58;61.32
52361;BME280;38294;42.966;1.608;2023-02-01T07:54:25;98531.47;;;7.72;61.13
52361;BME280;38294;42.966;1.608;2023-02-01T07:56:52;98528.88;;;8.12;59.37
52361;BME280;38294;42.966;1.608;2023-02-01T07:59:18;98523.94;;;7.91;59.93
52361;BME280;38294;42.966;1.608;2023-02-01T08:01:43;98528.19;;;8.06;58.09
52361;BME280;38294;42.966;1.608;2023-02-01T08:04:12;98518.03;;;8.51;57.04
52361;BME280;38294;42.966;1.608;2023-02-01T08:06:39;98528.06;;;8.64;55.39
52361;BME280;38294;42.966;1.608;2023-02-01T08:09:06;98521.97;;;8.67;54.16
52361;BME280;38294;42.966;1.608;2023-02-01T08:11:33;98528.78;;;8.48;53.90
52361;BME280;38294;42.966;1.608;2023-02-01T08:13:59;98530.91;;;8.90;52.06
52361;BME280;38294;42.966;1.608;2023-02-01T08:16:25;98535.91;;;8.96;52.16
52361;BME280;38294;42.966;1.608;2023-02-01T08:18:52;98535.84;;;9.36;51.47
52361;BME280;38294;42.966;1.608;2023-02-01T08:21:23;98537.66;;;9.83;50.41
52361;BME280;38294;42.966;1.608;2023-02-01T08:23:49;98538.16;;;9.85;49.98
52361;BME280;38294;42.966;1.608;2023-02-01T08:26:18;98542.63;;;9.98;49.55
52361;BME280;38294;42.966;1.608;2023-02-01T08:28:47;98550.72;;;10.21;49.06
52361;BME280;38294;42.966;1.608;2023-02-01T08:31:18;98547.31;;;10.07;48.78
52361;BME280;38294;42.966;1.608;2023-02-01T08:33:49;98543.41;;;10.42;48.07
52361;BME280;38294;42.966;1.608;2023-02-01T08:36:15;98544.56;;;10.15;48.31
52361;BME280;38294;42.966;1.608;2023-02-01T08:38:41;98547.13;;;10.46;47.98
52361;BME280;38294;42.966;1.608;2023-02-01T08:41:15;98547.19;;;10.75;47.88
52361;BME280;38294;42.966;1.608;2023-02-01T08:43:42;98549.50;;;10.56;47.58
52361;BME280;38294;42.966;1.608;2023-02-01T08:46:09;98553.53;;;10.59;47.73
52361;BME280;38294;42.966;1.608;2023-02-01T08:48:35;98546.69;;;10.82;47.34
52361;BME280;38294;42.966;1.608;2023-02-01T08:51:03;98546.59;;;10.99;46.52
52361;BME280;38294;42.966;1.608;2023-02-01T08:53:29;98550.81;;;10.50;47.46
52361;BME280;38294;42.966;1.608;2023-02-01T08:55:55;98537.63;;;11.19;46.01
52361;BME280;38294;42.966;1.608;2023-02-01T08:58:21;98539.84;;;11.26;45.90
52361;BME280;38294;42.966;1.608;2023-02-01T09:00:47;98540.34;;;11.48;46.16
52361;BME280;38294;42.966;1.608;2023-02-01T09:03:14;98537.47;;;11.45;46.03
52361;BME280;38294;42.966;1.608;2023-02-01T09:05:40;98529.22;;;11.24;45.76
52361;BME280;38294;42.966;1.608;2023-02-01T09:08:06;98532.19;;;11.40;45.69
52361;BME280;38294;42.966;1.608;2023-02-01T09:10:32;98521.66;;;11.92;44.57
52361;BME280;38294;42.966;1.608;2023-02-01T09:12:58;98514.13;;;12.01;44.32
52361;BME280;38294;42.966;1.608;2023-02-01T09:15:24;98510.13;;;11.78;44.61
52361;BME280;38294;42.966;1.608;2023-02-01T09:17:50;98520.50;;;11.93;43.94
52361;BME280;38294;42.966;1.608;2023-02-01T09:20:15;98528.09;;;11.67;44.27
52361;BME280;38294;42.966;1.608;2023-02-01T09:22:41;98510.59;;;11.80;43.98
52361;BME280;38294;42.966;1.608;2023-02-01T09:25:07;98507.84;;;11.80;44.41
52361;BME280;38294;42.966;1.608;2023-02-01T09:27:34;98513.97;;;12.18;43.33
52361;BME280;38294;42.966;1.608;2023-02-01T09:29:59;98515.94;;;11.97;42.96
52361;BME280;38294;42.966;1.608;2023-02-01T09:32:25;98513.47;;;12.04;42.89
52361;BME280;38294;42.966;1.608;2023-02-01T09:34:51;98511.75;;;12.44;42.28
52361;BME280;38294;42.966;1.608;2023-02-01T09:37:18;98519.97;;;12.32;42.12
52361;BME280;38294;42.966;1.608;2023-02-01T09:39:44;98505.81;;;12.42;41.75
52361;BME280;38294;42.966;1.608;2023-02-01T09:42:16;98523.13;;;12.67;41.51
52361;BME280;38294;42.966;1.608;2023-02-01T09:44:57;98512.06;;;13.00;40.76
52361;BME280;38294;42.966;1.608;2023-02-01T09:47:25;98504.28;;;13.02;40.42
52361;BME280;38294;42.966;1.608;2023-02-01T09:50:04;98505.97;;;13.06;40.35
52361;BME280;38294;42.966;1.608;2023-02-01T09:55:06;98518.81;;;13.51;39.51
52361;BME280;38294;42.966;1.608;2023-02-01T09:57:44;98506.56;;;14.16;38.62
52361;BME280;38294;42.966;1.608;2023-02-01T10:00:20;98509.97;;;13.97;38.99
52361;BME280;38294;42.966;1.608;2023-02-01T10:02:49;98523.19;;;13.92;38.91
52361;BME280;38294;42.966;1.608;2023-02-01T10:05:21;98517.88;;;14.27;38.78
52361;BME280;38294;42.966;1.608;2023-02-01T10:10:31;98511.91;;;14.37;39.13
52361;BME280;38294;42.966;1.608;2023-02-01T10:16:26;98533.41;;;15.21;37.25
52361;BME280;38294;42.966;1.608;2023-02-01T10:22:10;98540.66;;;15.61;36.37
52361;BME280;38294;42.966;1.608;2023-02-01T10:25:30;98551.13;;;15.05;37.47
52361;BME280;38294;42.966;1.608;2023-02-01T10:27:47;98550.28;;;15.51;37.18
52361;BME280;38294;42.966;1.608;2023-02-01T10:30:21;98550.94;;;14.82;38.25
52361;BME280;38294;42.966;1.608;2023-02-01T10:35:38;98548.66;;;13.12;42.05
52361;BME280;38294;42.966;1.608;2023-02-01T10:38:17;98551.28;;;13.09;41.96
52361;BME280;38294;42.966;1.608;2023-02-01T10:40:47;98554.34;;;12.50;43.46
52361;BME280;38294;42.966;1.608;2023-02-01T10:43:12;98556.88;;;12.43;44.16
52361;BME280;38294;42.966;1.608;2023-02-01T10:45:38;98545.06;;;13.00;43.00
52361;BME280;38294;42.966;1.608;2023-02-01T10:48:05;98551.97;;;12.49;43.47
52361;BME280;38294;42.966;1.608;2023-02-01T10:50:51;98539.81;;;14.35;40.99
52361;BME280;38294;42.966;1.608;2023-02-01T10:53:33;98541.44;;;14.52;39.78
52361;BME280;38294;42.966;1.608;2023-02-01T10:56:09;98532.97;;;14.45;40.68
52361;BME280;38294;42.966;1.608;2023-02-01T10:58:36;98525.75;;;14.12;40.81
52361;BME280;38294;42.966;1.608;2023-02-01T11:01:08;98524.47;;;13.30;42.13
52361;BME280;38294;42.966;1.608;2023-02-01T11:03:54;98536.50;;;13.50;41.67
52361;BME280;38294;42.966;1.608;2023-02-01T11:06:37;98540.75;;;13.23;41.89
52361;BME280;38294;42.966;1.608;2023-02-01T11:11:55;98527.19;;;13.66;41.32
52361;BME280;38294;42.966;1.608;2023-02-01T11:14:26;98534.53;;;13.38;41.81
52361;BME280;38294;42.966;1.608;2023-02-01T11:16:58;98530.47;;;13.72;42.19
52361;BME280;38294;42.966;1.608;2023-02-01T11:19:25;98534.56;;;13.26;41.96
52361;BME280;38294;42.966;1.608;2023-02-01T11:21:52;98531.47;;;14.19;41.01
52361;BME280;38294;42.966;1.608;2023-02-01T11:24:23;98533.94;;;14.37;41.82
52361;BME280;38294;42.966;1.608;2023-02-01T11:26:50;98537.19;;;14.27;43.01
52361;BME280;38294;42.966;1.608;2023-02-01T11:29:19;98538.38;;;13.74;44.50
52361;BME280;38294;42.966;1.608;2023-02-01T11:31:50;98540.69;;;13.72;44.06
52361;BME280;38294;42.966;1.608;2023-02-01T11:34:18;98539.81;;;12.95;45.80
52361;BME280;38294;42.966;1.608;2023-02-01T11:36:47;98532.25;;;13.40;45.76
52361;BME280;38294;42.966;1.608;2023-02-01T11:41:44;98520.13;;;14.09;44.38
52361;BME280;38294;42.966;1.608;2023-02-01T11:44:23;98522.41;;;13.27;46.09
52361;BME280;38294;42.966;1.608;2023-02-01T11:46:51;98522.94;;;13.45;45.24
52361;BME280;38294;42.966;1.608;2023-02-01T11:49:21;98513.66;;;13.49;45.43
52361;BME280;38294;42.966;1.608;2023-02-01T12:14:00;98527.31;;;13.46;45.25
52361;BME280;38294;42.966;1.608;2023-02-01T12:22:14;98529.13;;;13.54;49.93
52361;BME280;38294;42.966;1.608;2023-02-01T12:28:06;98536.75;;;13.21;49.73
52361;BME280;38294;42.966;1.608;2023-02-01T12:30:54;98537.25;;;12.78;50.80
52361;BME280;38294;42.966;1.608;2023-02-01T12:42:32;98530.47;;;12.63;53.35
52361;BME280;38294;42.966;1.608;2023-02-01T12:45:19;98529.00;;;12.90;52.77
52361;BME280;38294;42.966;1.608;2023-02-01T12:50:49;98521.66;;;12.25;54.33
52361;BME280;38294;42.966;1.608;2023-02-01T12:56:10;98530.88;;;12.08;55.01
52361;BME280;38294;42.966;1.608;2023-02-01T12:58:51;98515.69;;;11.90;54.61
52361;BME280;38294;42.966;1.608;2023-02-01T13:01:39;98525.00;;;11.47;55.17
52361;BME280;38294;42.966;1.608;2023-02-01T13:06:39;98515.00;;;11.51;55.98
52361;BME280;38294;42.966;1.608;2023-02-01T13:09:22;98510.75;;;11.54;54.75
52361;BME280;38294;42.966;1.608;2023-02-01T13:11:55;98502.44;;;11.71;54.30
52361;BME280;38294;42.966;1.608;2023-02-01T13:17:15;98501.22;;;12.01;53.69
52361;BME280;38294;42.966;1.608;2023-02-01T13:19:56;98499.97;;;11.78;53.74
52361;BME280;38294;42.966;1.608;2023-02-01T13:22:45;98488.88;;;12.07;53.50
52361;BME280;38294;42.966;1.608;2023-02-01T13:34:03;98476.25;;;11.74;54.10
52361;BME280;38294;42.966;1.608;2023-02-01T13:36:45;98480.97;;;11.44;54.30
52361;BME280;38294;42.966;1.608;2023-02-01T13:41:51;98460.47;;;12.03;53.68
52361;BME280;38294;42.966;1.608;2023-02-01T13:44:48;98446.03;;;12.63;51.53
52361;BME280;38294;42.966;1.608;2023-02-01T13:47:19;98435.47;;;12.17;52.59
52361;BME280;38294;42.966;1.608;2023-02-01T13:49:47;98441.63;;;12.14;52.91
52361;BME280;38294;42.966;1.608;2023-02-01T13:52:42;98418.09;;;12.49;52.19
52361;BME280;38294;42.966;1.608;2023-02-01T13:57:48;98428.25;;;12.25;53.41
52361;BME280;38294;42.966;1.608;2023-02-01T14:13:35;98402.50;;;13.82;49.08
52361;BME280;38294;42.966;1.608;2023-02-01T14:23:45;98404.25;;;13.74;49.31
52361;BME280;38294;42.966;1.608;2023-02-01T14:26:17;98399.13;;;13.33;49.14
52361;BME280;38294;42.966;1.608;2023-02-01T14:28:49;98411.34;;;13.47;49.06
52361;BME280;38294;42.966;1.608;2023-02-01T14:31:40;98409.09;;;13.37;49.87
52361;BME280;38294;42.966;1.608;2023-02-01T14:34:37;98405.28;;;13.97;48.25
52361;BME280;38294;42.966;1.608;2023-02-01T14:42:26;98410.63;;;13.23;50.01
52361;BME280;38294;42.966;1.608;2023-02-01T14:44:54;98413.50;;;13.02;50.64
52361;BME280;38294;42.966;1.608;2023-02-01T14:52:37;98419.91;;;12.33;52.61
52361;BME280;38294;42.966;1.608;2023-02-01T14:55:25;98427.59;;;12.40;52.39
52361;BME280;38294;42.966;1.608;2023-02-01T14:57:55;98425.16;;;12.26;53.37
52361;BME280;38294;42.966;1.608;2023-02-01T15:00:28;98422.00;;;12.48;52.60
52361;BME280;38294;42.966;1.608;2023-02-01T15:03:00;98428.63;;;12.47;52.81
52361;BME280;38294;42.966;1.608;2023-02-01T15:05:38;98443.63;;;11.93;53.43
52361;BME280;38294;42.966;1.608;2023-02-01T15:08:15;98452.34;;;12.52;52.86
52361;BME280;38294;42.966;1.608;2023-02-01T15:10:45;98441.84;;;12.09;53.69
52361;BME280;38294;42.966;1.608;2023-02-01T15:13:21;98443.47;;;12.22;53.12
52361;BME280;38294;42.966;1.608;2023-02-01T15:16:10;98442.84;;;12.49;52.33
52361;BME280;38294;42.966;1.608;2023-02-01T15:18:37;98440.84;;;11.81;53.57
52361;BME280;38294;42.966;1.608;2023-02-01T15:21:04;98442.03;;;12.37;53.08
52361;BME280;38294;42.966;1.608;2023-02-01T15:23:32;98457.19;;;12.22;53.13
52361;BME280;38294;42.966;1.608;2023-02-01T15:25:58;98444.16;;;11.86;53.58
52361;BME280;38294;42.966;1.608;2023-02-01T15:28:25;98447.31;;;12.09;53.53
52361;BME280;38294;42.966;1.608;2023-02-01T15:31:02;98454.97;;;12.03;53.52
52361;BME280;38294;42.966;1.608;2023-02-01T15:33:29;98459.66;;;12.03;53.50
52361;BME280;38294;42.966;1.608;2023-02-01T15:41:14;98453.91;;;11.96;53.75
52361;BME280;38294;42.966;1.608;2023-02-01T15:46:21;98460.47;;;12.03;54.38
52361;BME280;38294;42.966;1.608;2023-02-01T15:48:52;98459.06;;;11.85;54.60
52361;BME280;38294;42.966;1.608;2023-02-01T15:51:19;98454.31;;;12.06;54.01
52361;BME280;38294;42.966;1.608;2023-02-01T15:53:56;98462.22;;;11.67;54.70
52361;BME280;38294;42.966;1.608;2023-02-01T15:56:44;98455.91;;;11.75;54.26
52361;BME280;38294;42.966;1.608;2023-02-01T15:59:20;98446.69;;;11.79;54.95
52361;BME280;38294;42.966;1.608;2023-02-01T16:01:47;98450.13;;;11.26;56.27
52361;BME280;38294;42.966;1.608;2023-02-01T16:04:20;98437.75;;;11.82;54.65
52361;BME280;38294;42.966;1.608;2023-02-01T16:06:50;98448.50;;;11.67;55.80
52361;BME280;38294;42.966;1.608;2023-02-01T16:09:20;98448.06;;;11.44;56.36
52361;BME280;38294;42.966;1.608;2023-02-01T16:11:55;98449.47;;;11.71;55.67
52361;BME280;38294;42.966;1.608;2023-02-01T16:14:21;98441.97;;;11.59;55.32
52361;BME280;38294;42.966;1.608;2023-02-01T16:16:47;98442.59;;;11.23;55.72
52361;BME280;38294;42.966;1.608;2023-02-01T16:19:13;98441.75;;;11.64;54.91
52361;BME280;38294;42.966;1.608;2023-02-01T16:21:38;98441.09;;;11.26;56.29
52361;BME280;38294;42.966;1.608;2023-02-01T16:24:04;98444.72;;;11.38;56.06
52361;BME280;38294;42.966;1.608;2023-02-01T16:26:32;98440.38;;;11.58;56.07
52361;BME280;38294;42.966;1.608;2023-02-01T16:28:59;98436.16;;;11.19;57.34
52361;BME280;38294;42.966;1.608;2023-02-01T16:31:36;98441.16;;;11.38;57.15
52361;BME280;38294;42.966;1.608;2023-02-01T16:34:14;98428.69;;;10.99;57.52
52361;BME280;38294;42.966;1.608;2023-02-01T16:36:47;98440.81;;;11.19;57.56
52361;BME280;38294;42.966;1.608;2023-02-01T16:39:18;98438.03;;;10.77;58.12
52361;BME280;38294;42.966;1.608;2023-02-01T16:41:44;98446.53;;;10.84;57.35
52361;BME280;38294;42.966;1.608;2023-02-01T16:44:13;98450.50;;;10.66;58.13
52361;BME280;38294;42.966;1.608;2023-02-01T16:46:43;98451.38;;;10.49;59.38
52361;BME280;38294;42.966;1.608;2023-02-01T16:49:24;98452.91;;;10.68;58.63
52361;BME280;38294;42.966;1.608;2023-02-01T16:51:51;98464.50;;;10.27;59.63
52361;BME280;38294;42.966;1.608;2023-02-01T16:54:20;98465.19;;;10.24;59.59
52361;BME280;38294;42.966;1.608;2023-02-01T16:56:46;98480.59;;;10.75;58.71
52361;BME280;38294;42.966;1.608;2023-02-01T16:59:12;98472.94;;;10.60;59.08
52361;BME280;38294;42.966;1.608;2023-02-01T17:01:39;98484.81;;;10.09;60.52
52361;BME280;38294;42.966;1.608;2023-02-01T17:04:08;98478.13;;;10.52;59.04
52361;BME280;38294;42.966;1.608;2023-02-01T17:06:35;98487.16;;;10.44;59.54
52361;BME280;38294;42.966;1.608;2023-02-01T17:09:05;98486.44;;;10.65;58.36
52361;BME280;38294;42.966;1.608;2023-02-01T17:11:31;98504.00;;;9.83;61.00
52361;BME280;38294;42.966;1.608;2023-02-01T17:14:04;98504.75;;;10.35;59.53
52361;BME280;38294;42.966;1.608;2023-02-01T17:16:36;98509.91;;;10.36;58.77
52361;BME280;38294;42.966;1.608;2023-02-01T17:19:08;98505.38;;;10.49;59.70
52361;BME280;38294;42.966;1.608;2023-02-01T17:21:56;98513.78;;;10.82;59.18
52361;BME280;38294;42.966;1.608;2023-02-01T17:24:30;98521.81;;;10.40;60.21
52361;BME280;38294;42.966;1.608;2023-02-01T17:27:00;98529.59;;;10.30;60.11
52361;BME280;38294;42.966;1.608;2023-02-01T17:29:25;98522.38;;;10.17;59.42
52361;BME280;38294;42.966;1.608;2023-02-01T17:31:54;98535.50;;;10.40;59.38
52361;BME280;38294;42.966;1.608;2023-02-01T17:34:20;98531.53;;;10.21;59.96
52361;BME280;38294;42.966;1.608;2023-02-01T17:36:47;98528.78;;;10.12;60.21
52361;BME280;38294;42.966;1.608;2023-02-01T17:39:14;98537.31;;;10.36;59.95
52361;BME280;38294;42.966;1.608;2023-02-01T17:42:01;98537.16;;;10.24;59.81
52361;BME280;38294;42.966;1.608;2023-02-01T17:44:27;98544.75;;;10.01;60.15
52361;BME280;38294;42.966;1.608;2023-02-01T17:46:52;98549.41;;;9.75;61.26
52361;BME280;38294;42.966;1.608;2023-02-01T17:49:18;98556.19;;;9.69;61.39
52361;BME280;38294;42.966;1.608;2023-02-01T17:51:43;98548.88;;;9.30;62.49
52361;BME280;38294;42.966;1.608;2023-02-01T17:54:16;98545.19;;;9.61;62.53
52361;BME280;38294;42.966;1.608;2023-02-01T17:56:45;98546.31;;;8.86;64.10
52361;BME280;38294;42.966;1.608;2023-02-01T17:59:13;98559.31;;;8.80;65.20
52361;BME280;38294;42.966;1.608;2023-02-01T18:01:42;98556.78;;;8.92;63.98
52361;BME280;38294;42.966;1.608;2023-02-01T18:04:12;98566.56;;;8.85;64.74
52361;BME280;38294;42.966;1.608;2023-02-01T18:06:40;98567.00;;;8.48;65.10
52361;BME280;38294;42.966;1.608;2023-02-01T18:09:06;98569.34;;;8.32;66.35
52361;BME280;38294;42.966;1.608;2023-02-01T18:11:31;98566.03;;;8.43;65.33
52361;BME280;38294;42.966;1.608;2023-02-01T18:13:58;98570.69;;;8.74;64.59
52361;BME280;38294;42.966;1.608;2023-02-01T18:16:29;98570.50;;;8.70;65.43
52361;BME280;38294;42.966;1.608;2023-02-01T18:18:55;98566.00;;;8.66;64.27
52361;BME280;38294;42.966;1.608;2023-02-01T18:21:37;98577.56;;;9.02;63.75
52361;BME280;38294;42.966;1.608;2023-02-01T18:24:03;98591.16;;;8.54;64.54
52361;BME280;38294;42.966;1.608;2023-02-01T18:26:29;98586.28;;;8.42;64.09
52361;BME280;38294;42.966;1.608;2023-02-01T18:28:54;98590.56;;;8.21;64.90
52361;BME280;38294;42.966;1.608;2023-02-01T18:33:50;98601.06;;;8.72;63.81
52361;BME280;38294;42.966;1.608;2023-02-01T18:36:15;98598.44;;;8.36;64.20
52361;BME280;38294;42.966;1.608;2023-02-01T18:38:41;98599.81;;;8.78;62.80
52361;BME280;38294;42.966;1.608;2023-02-01T18:41:11;98606.25;;;8.52;64.95
52361;BME280;38294;42.966;1.608;2023-02-01T18:43:38;98608.94;;;7.85;66.02
52361;BME280;38294;42.966;1.608;2023-02-01T18:46:04;98610.78;;;7.98;65.93
52361;BME280;38294;42.966;1.608;2023-02-01T18:48:29;98615.63;;;7.65;66.98
52361;BME280;38294;42.966;1.608;2023-02-01T18:50:55;98610.09;;;7.57;67.69
52361;BME280;38294;42.966;1.608;2023-02-01T18:53:22;98614.28;;;7.13;69.23
52361;BME280;38294;42.966;1.608;2023-02-01T18:55:56;98623.31;;;7.63;68.66
52361;BME280;38294;42.966;1.608;2023-02-01T18:58:22;98624.44;;;7.21;68.98
52361;BME280;38294;42.966;1.608;2023-02-01T19:00:55;98635.75;;;7.01;70.27
52361;BME280;38294;42.966;1.608;2023-02-01T19:03:21;98641.72;;;7.30;68.89
52361;BME280;38294;42.966;1.608;2023-02-01T19:05:53;98644.53;;;7.12;69.54
52361;BME280;38294;42.966;1.608;2023-02-01T19:08:19;98653.03;;;6.32;71.81
52361;BME280;38294;42.966;1.608;2023-02-01T19:10:45;98656.72;;;6.22;73.22
52361;BME280;38294;42.966;1.608;2023-02-01T19:13:11;98660.06;;;6.84;71.64
52361;BME280;38294;42.966;1.608;2023-02-01T19:15:40;98658.06;;;7.30;70.44
52361;BME280;38294;42.966;1.608;2023-02-01T19:18:07;98663.72;;;8.11;67.84
52361;BME280;38294;42.966;1.608;2023-02-01T19:20:35;98673.75;;;8.37;65.31
52361;BME280;38294;42.966;1.608;2023-02-01T19:23:02;98678.44;;;8.59;63.88
52361;BME280;38294;42.966;1.608;2023-02-01T19:25:28;98681.34;;;8.85;62.79